createdAt,value
2022-10-25T00:00:09.040Z,920.6900
2022-10-25T00:00:20.104Z,920.0550
2022-10-25T00:00:31.313Z,919.4210
2022-10-25T00:00:42.512Z,920.6900
2022-10-25T00:00:53.715Z,921.9610
2022-10-25T00:01:04.945Z,923.2370
2022-10-25T00:01:16.214Z,920.0550
2022-10-25T00:01:27.651Z,922.5980
2022-10-25T00:01:38.983Z,923.8750
2022-10-25T00:01:50.225Z,922.5980
2022-10-25T00:02:01.500Z,921.9610
2022-10-25T00:02:12.921Z,924.5150
2022-10-25T00:02:24.483Z,920.6900
2022-10-25T00:02:35.939Z,920.6900
2022-10-25T00:02:47.065Z,921.9610
2022-10-25T00:02:58.183Z,923.8750
2022-10-25T00:03:09.384Z,925.7980
2022-10-25T00:03:20.583Z,923.8750
2022-10-25T00:03:31.631Z,924.5150
2022-10-25T00:03:42.674Z,925.1560
2022-10-25T00:03:53.713Z,925.1560
2022-10-25T00:04:04.758Z,925.1560
2022-10-25T00:04:15.988Z,925.7980
2022-10-25T00:04:27.044Z,924.5150
2022-10-25T00:04:38.109Z,924.5150
2022-10-25T00:04:49.172Z,927.0830
2022-10-25T00:05:00.231Z,929.0190
2022-10-25T00:05:11.303Z,928.3730
2022-10-25T00:05:22.504Z,928.3730
2022-10-25T00:05:33.708Z,927.0830
2022-10-25T00:05:44.900Z,929.0190
2022-10-25T00:05:56.104Z,929.0190
2022-10-25T00:06:07.181Z,929.6660
2022-10-25T00:06:18.259Z,930.3140
2022-10-25T00:06:29.389Z,927.7280
2022-10-25T00:06:40.584Z,929.6660
2022-10-25T00:06:51.783Z,929.6660
2022-10-25T00:07:02.983Z,930.9620
2022-10-25T00:07:14.220Z,928.3730
2022-10-25T00:07:25.384Z,932.2630
2022-10-25T00:07:36.583Z,930.9620
2022-10-25T00:07:48.149Z,930.9620
2022-10-25T00:07:59.361Z,929.6660
2022-10-25T00:08:10.502Z,933.5660
2022-10-25T00:08:21.703Z,929.6660
2022-10-25T00:08:32.904Z,932.2630
2022-10-25T00:08:44.105Z,932.9140
2022-10-25T00:08:55.305Z,930.9620
2022-10-25T00:09:06.356Z,932.2630
2022-10-25T00:09:17.423Z,935.5290
2022-10-25T00:09:28.583Z,932.2630
2022-10-25T00:09:39.786Z,934.2200
2022-10-25T00:09:51.014Z,933.5660
2022-10-25T00:10:02.191Z,932.9140
2022-10-25T00:10:13.232Z,932.9140
2022-10-25T00:10:25.751Z,932.2630
2022-10-25T00:10:37.064Z,933.5660
2022-10-25T00:10:48.263Z,934.2200
2022-10-25T00:10:59.303Z,934.8740
2022-10-25T00:11:10.343Z,934.8740
2022-10-25T00:11:21.543Z,937.5000
2022-10-25T00:11:32.752Z,931.6120
2022-10-25T00:11:43.944Z,935.5290
2022-10-25T00:11:55.144Z,937.5000
2022-10-25T00:12:06.343Z,934.2200
2022-10-25T00:12:17.545Z,935.5290
2022-10-25T00:12:28.665Z,938.8190
2022-10-25T00:12:50.824Z,936.1850
2022-10-25T00:13:02.024Z,938.8190
2022-10-25T00:13:13.231Z,936.8420
2022-10-25T00:13:24.423Z,940.1410
2022-10-25T00:13:35.634Z,938.8190
2022-10-25T00:13:46.822Z,937.5000
2022-10-25T00:13:58.024Z,939.4790
2022-10-25T00:14:09.223Z,940.1410
2022-10-25T00:14:20.426Z,938.8190
2022-10-25T00:14:31.464Z,938.1590
2022-10-25T00:14:42.515Z,942.7970
2022-10-25T00:14:53.603Z,944.1300
2022-10-25T00:15:04.709Z,942.7970
2022-10-25T00:15:15.733Z,942.7970
2022-10-25T00:15:26.843Z,944.1300
2022-10-25T00:15:37.912Z,939.4790
2022-10-25T00:15:49.074Z,941.4670
2022-10-25T00:16:00.267Z,939.4790
2022-10-25T00:16:11.465Z,944.7980
2022-10-25T00:16:22.502Z,944.7980
2022-10-25T00:16:33.562Z,944.7980
2022-10-25T00:16:44.760Z,944.1300
2022-10-25T00:16:55.794Z,944.7980
2022-10-25T00:17:06.914Z,946.1370
2022-10-25T00:17:18.023Z,946.1370
2022-10-25T00:17:29.063Z,938.8190
2022-10-25T00:17:40.185Z,942.7970
2022-10-25T00:17:51.224Z,946.1370
2022-10-25T00:18:02.284Z,947.4800
2022-10-25T00:18:13.397Z,940.1410
2022-10-25T00:18:24.583Z,944.7980
2022-10-25T00:18:35.625Z,946.8090
2022-10-25T00:18:46.674Z,945.4670
2022-10-25T00:18:57.871Z,944.1300
2022-10-25T00:19:08.983Z,945.4670
2022-10-25T00:19:20.054Z,944.1300
2022-10-25T00:19:31.152Z,946.1370
2022-10-25T00:19:42.193Z,944.1300
2022-10-25T00:19:53.313Z,946.8090
2022-10-25T00:20:04.454Z,946.1370
2022-10-25T00:20:15.512Z,948.8270
2022-10-25T00:20:26.579Z,947.4800
2022-10-25T00:20:37.722Z,946.8090
2022-10-25T00:20:48.797Z,949.5020
2022-10-25T00:20:59.928Z,949.5020
2022-10-25T00:21:11.034Z,946.8090
2022-10-25T00:21:22.185Z,948.8270
2022-10-25T00:21:33.390Z,946.1370
2022-10-25T00:21:44.584Z,948.1530
2022-10-25T00:21:55.623Z,949.5020
2022-10-25T00:22:06.663Z,946.8090
2022-10-25T00:22:17.738Z,948.8270
2022-10-25T00:22:28.763Z,950.1780
2022-10-25T00:22:39.943Z,947.4800
2022-10-25T00:22:51.147Z,948.8270
2022-10-25T00:23:02.196Z,944.7980
2022-10-25T00:23:13.242Z,950.1780
2022-10-25T00:23:24.423Z,949.5020
2022-10-25T00:23:35.478Z,950.8550
2022-10-25T00:23:46.608Z,950.8550
2022-10-25T00:23:57.703Z,947.4800
2022-10-25T00:24:08.744Z,948.1530
2022-10-25T00:24:19.793Z,948.8270
2022-10-25T00:24:30.843Z,949.5020
2022-10-25T00:24:41.913Z,949.5020
2022-10-25T00:24:53.062Z,950.1780
2022-10-25T00:25:04.264Z,948.8270
2022-10-25T00:25:15.323Z,948.8270
2022-10-25T00:25:26.412Z,949.5020
2022-10-25T00:25:37.552Z,950.8550
2022-10-25T00:25:48.752Z,952.2110
2022-10-25T00:25:59.942Z,948.8270
2022-10-25T00:26:11.144Z,947.4800
2022-10-25T00:26:22.343Z,948.1530
2022-10-25T00:26:33.545Z,947.4800
2022-10-25T00:26:44.744Z,950.1780
2022-10-25T00:26:55.943Z,946.1370
2022-10-25T00:27:07.144Z,948.1530
2022-10-25T00:27:18.183Z,951.5320
2022-10-25T00:27:29.227Z,949.5020
2022-10-25T00:27:40.428Z,946.1370
2022-10-25T00:27:51.522Z,951.5320
2022-10-25T00:28:02.582Z,948.8270
2022-10-25T00:28:13.704Z,950.1780
2022-10-25T00:28:24.912Z,948.8270
2022-10-25T00:28:36.038Z,946.8090
2022-10-25T00:28:47.101Z,953.5710
2022-10-25T00:28:58.183Z,944.1300
2022-10-25T00:29:09.471Z,949.5020
2022-10-25T00:29:20.644Z,949.5020
2022-10-25T00:29:31.706Z,949.5020
2022-10-25T00:29:42.774Z,952.2110
2022-10-25T00:29:53.871Z,950.1780
2022-10-25T00:30:04.914Z,952.2110
2022-10-25T00:30:15.973Z,946.1370
2022-10-25T00:30:27.146Z,950.8550
2022-10-25T00:30:38.184Z,950.1780
2022-10-25T00:30:49.224Z,948.1530
2022-10-25T00:31:00.425Z,954.2530
2022-10-25T00:31:11.631Z,950.1780
2022-10-25T00:31:22.837Z,948.8270
2022-10-25T00:31:34.034Z,952.8910
2022-10-25T00:31:45.084Z,951.5320
2022-10-25T00:31:56.163Z,948.8270
2022-10-25T00:32:07.305Z,952.2110
2022-10-25T00:32:18.512Z,952.2110
2022-10-25T00:32:29.703Z,948.8270
2022-10-25T00:32:40.901Z,951.5320
2022-10-25T00:32:52.103Z,950.8550
2022-10-25T00:33:03.303Z,950.1780
2022-10-25T00:33:14.503Z,949.5020
2022-10-25T00:33:25.704Z,950.8550
2022-10-25T00:33:36.903Z,951.5320
2022-10-25T00:33:47.944Z,949.5020
2022-10-25T00:33:59.063Z,950.1780
2022-10-25T00:34:10.183Z,950.1780
2022-10-25T00:34:21.383Z,950.8550
2022-10-25T00:34:32.589Z,950.1780
2022-10-25T00:34:43.784Z,948.1530
2022-10-25T00:34:54.833Z,950.1780
2022-10-25T00:35:05.909Z,951.5320
2022-10-25T00:35:17.098Z,951.5320
2022-10-25T00:35:28.263Z,953.5710
2022-10-25T00:35:39.464Z,947.4800
2022-10-25T00:35:50.671Z,952.2110
2022-10-25T00:36:01.753Z,950.8550
2022-10-25T00:36:12.812Z,953.5710
2022-10-25T00:36:23.943Z,953.5710
2022-10-25T00:36:35.144Z,950.8550
2022-10-25T00:36:46.346Z,952.8910
2022-10-25T00:36:57.543Z,952.2110
2022-10-25T00:37:08.743Z,952.8910
2022-10-25T00:37:19.971Z,952.2110
2022-10-25T00:37:31.209Z,950.8550
2022-10-25T00:37:42.343Z,952.8910
2022-10-25T00:37:53.543Z,952.2110
2022-10-25T00:38:04.597Z,946.8090
2022-10-25T00:38:15.634Z,950.1780
2022-10-25T00:38:26.831Z,949.5020
2022-10-25T00:38:38.031Z,951.5320
2022-10-25T00:38:49.237Z,949.5020
2022-10-25T00:39:00.423Z,949.5020
2022-10-25T00:39:11.624Z,950.8550
2022-10-25T00:39:22.831Z,949.5020
2022-10-25T00:39:34.024Z,952.2110
2022-10-25T00:39:45.225Z,949.5020
2022-10-25T00:39:56.423Z,950.8550
2022-10-25T00:40:07.474Z,948.8270
2022-10-25T00:40:18.543Z,950.8550
2022-10-25T00:40:29.702Z,950.1780
2022-10-25T00:40:40.903Z,951.5320
2022-10-25T00:40:52.104Z,950.1780
2022-10-25T00:41:03.308Z,948.1530
2022-10-25T00:41:14.352Z,950.1780
2022-10-25T00:41:25.423Z,950.8550
2022-10-25T00:41:36.584Z,949.5020
2022-10-25T00:41:47.784Z,946.8090
2022-10-25T00:41:59.001Z,948.1530
2022-10-25T00:42:10.183Z,948.8270
2022-10-25T00:42:21.382Z,948.1530
2022-10-25T00:42:32.583Z,946.8090
2022-10-25T00:42:44.075Z,949.5020
2022-10-25T00:42:55.373Z,943.4630
2022-10-25T00:43:06.504Z,947.4800
2022-10-25T00:43:17.713Z,945.4670
2022-10-25T00:43:28.905Z,947.4800
2022-10-25T00:43:40.110Z,949.5020
2022-10-25T00:43:51.155Z,944.1300
2022-10-25T00:44:02.194Z,947.4800
2022-10-25T00:44:13.272Z,948.1530
2022-10-25T00:44:24.334Z,946.8090
2022-10-25T00:44:35.464Z,946.8090
2022-10-25T00:44:46.665Z,950.1780
2022-10-25T00:44:57.725Z,946.1370
2022-10-25T00:45:08.767Z,948.1530
2022-10-25T00:45:19.981Z,944.7980
2022-10-25T00:45:31.034Z,942.7970
2022-10-25T00:45:42.093Z,946.8090
2022-10-25T00:45:53.250Z,942.7970
2022-10-25T00:46:04.425Z,945.4670
2022-10-25T00:46:15.624Z,945.4670
2022-10-25T00:46:26.837Z,944.7980
2022-10-25T00:46:37.873Z,946.8090
2022-10-25T00:46:48.950Z,943.4630
2022-10-25T00:47:00.103Z,943.4630
2022-10-25T00:47:11.311Z,942.7970
2022-10-25T00:47:22.503Z,940.1410
2022-10-25T00:47:33.704Z,942.7970
2022-10-25T00:47:44.950Z,942.7970
2022-10-25T00:47:56.480Z,943.4630
2022-10-25T00:48:07.624Z,944.1300
2022-10-25T00:48:18.723Z,944.1300
2022-10-25T00:48:29.789Z,941.4670
2022-10-25T00:48:40.911Z,940.1410
2022-10-25T00:48:52.101Z,943.4630
2022-10-25T00:49:03.158Z,943.4630
2022-10-25T00:49:14.203Z,934.8740
2022-10-25T00:49:25.383Z,942.7970
2022-10-25T00:49:36.582Z,938.8190
2022-10-25T00:49:47.633Z,938.1590
2022-10-25T00:49:58.712Z,938.8190
2022-10-25T00:50:09.864Z,934.8740
2022-10-25T00:50:21.085Z,939.4790
2022-10-25T00:50:32.264Z,938.1590
2022-10-25T00:50:43.463Z,938.1590
2022-10-25T00:50:54.664Z,936.8420
2022-10-25T00:51:05.862Z,937.5000
2022-10-25T00:51:17.063Z,938.8190
2022-10-25T00:51:28.263Z,936.1850
2022-10-25T00:51:39.463Z,930.9620
2022-10-25T00:51:50.503Z,934.2200
2022-10-25T00:52:01.544Z,934.8740
2022-10-25T00:52:12.742Z,934.8740
2022-10-25T00:52:24.007Z,931.6120
2022-10-25T00:52:35.144Z,934.8740
2022-10-25T00:52:46.346Z,934.2200
2022-10-25T00:52:57.383Z,930.9620
2022-10-25T00:53:08.427Z,929.6660
2022-10-25T00:53:19.625Z,930.9620
2022-10-25T00:53:30.829Z,932.9140
2022-10-25T00:53:42.024Z,931.6120
2022-10-25T00:53:53.223Z,929.6660
2022-10-25T00:54:04.262Z,933.5660
2022-10-25T00:54:15.342Z,929.6660
2022-10-25T00:54:26.511Z,928.3730
2022-10-25T00:54:37.703Z,932.2630
2022-10-25T00:54:48.903Z,929.6660
2022-10-25T00:55:00.117Z,928.3730
2022-10-25T00:55:11.143Z,927.0830
2022-10-25T00:55:22.242Z,927.0830
2022-10-25T00:55:33.383Z,925.7980
2022-10-25T00:55:44.583Z,927.7280
2022-10-25T00:55:55.783Z,929.6660
2022-10-25T00:56:06.986Z,932.2630
2022-10-25T00:56:18.030Z,927.7280
2022-10-25T00:56:29.063Z,926.4400
2022-10-25T00:56:40.263Z,929.6660
2022-10-25T00:56:51.464Z,929.6660
2022-10-25T00:57:02.665Z,929.0190
2022-10-25T00:57:13.873Z,933.5660
2022-10-25T00:57:25.064Z,927.0830
2022-10-25T00:57:36.263Z,929.6660
2022-10-25T00:57:47.756Z,922.5980
2022-10-25T00:57:59.035Z,924.5150
2022-10-25T00:58:10.193Z,930.9620
2022-10-25T00:58:21.389Z,925.7980
2022-10-25T00:58:32.502Z,929.0190
2022-10-25T00:58:43.562Z,927.0830
2022-10-25T00:58:54.663Z,929.6660
2022-10-25T00:59:05.870Z,928.3730
2022-10-25T00:59:16.923Z,929.0190
2022-10-25T00:59:27.993Z,929.6660
2022-10-25T00:59:39.042Z,929.6660
2022-10-25T00:59:50.193Z,929.6660
2022-10-25T01:00:01.273Z,927.0830
2022-10-25T01:00:12.423Z,925.7980
2022-10-25T01:00:23.664Z,929.6660
2022-10-25T01:00:34.831Z,927.7280
2022-10-25T01:00:46.037Z,928.3730
2022-10-25T01:00:57.231Z,929.6660
2022-10-25T01:01:08.566Z,922.5980
2022-10-25T01:01:19.734Z,924.5150
2022-10-25T01:01:30.993Z,922.5980
2022-10-25T01:01:42.527Z,927.7280
2022-10-25T01:01:53.641Z,925.1560
2022-10-25T01:02:04.943Z,927.0830
2022-10-25T01:02:16.192Z,921.3250
2022-10-25T01:02:27.638Z,928.3730
2022-10-25T01:02:38.862Z,928.3730
2022-10-25T01:02:50.142Z,921.3250
2022-10-25T01:03:01.410Z,928.3730
2022-10-25T01:03:12.584Z,925.7980
2022-10-25T01:03:23.632Z,928.3730
2022-10-25T01:03:34.707Z,924.5150
2022-10-25T01:03:45.872Z,923.2370
2022-10-25T01:03:57.065Z,927.0830
2022-10-25T01:04:08.262Z,923.8750
2022-10-25T01:04:19.471Z,925.7980
2022-10-25T01:04:30.671Z,927.0830
2022-10-25T01:04:41.864Z,924.5150
2022-10-25T01:04:53.065Z,924.5150
2022-10-25T01:05:04.263Z,925.1560
2022-10-25T01:05:15.475Z,924.5150
2022-10-25T01:05:26.556Z,920.6900
2022-10-25T01:05:37.625Z,925.1560
2022-10-25T01:05:48.742Z,927.0830
2022-10-25T01:05:59.944Z,927.7280
2022-10-25T01:06:11.149Z,927.7280
2022-10-25T01:06:22.346Z,925.7980
2022-10-25T01:06:33.551Z,923.8750
2022-10-25T01:06:44.742Z,927.0830
2022-10-25T01:06:55.961Z,925.7980
2022-10-25T01:07:07.143Z,920.0550
2022-10-25T01:07:18.344Z,924.5150
2022-10-25T01:07:29.458Z,923.2370
2022-10-25T01:07:40.493Z,921.9610
2022-10-25T01:07:51.623Z,923.8750
2022-10-25T01:08:02.823Z,925.1560
2022-10-25T01:08:13.898Z,924.5150
2022-10-25T01:08:24.971Z,923.2370
2022-10-25T01:08:36.023Z,924.5150
2022-10-25T01:08:47.093Z,927.0830
2022-10-25T01:08:58.183Z,926.4400
2022-10-25T01:09:09.224Z,927.0830
2022-10-25T01:09:20.264Z,923.2370
2022-10-25T01:09:31.365Z,925.7980
2022-10-25T01:09:42.403Z,924.5150
2022-10-25T01:09:53.543Z,923.8750
2022-10-25T01:10:04.752Z,925.1560
2022-10-25T01:10:15.802Z,923.2370
2022-10-25T01:10:26.903Z,924.5150
2022-10-25T01:10:38.031Z,927.0830
2022-10-25T01:10:49.074Z,924.5150
2022-10-25T01:11:00.152Z,922.5980
2022-10-25T01:11:11.331Z,924.5150
2022-10-25T01:11:22.504Z,926.4400
2022-10-25T01:11:33.703Z,924.5150
2022-10-25T01:11:44.916Z,922.5980
2022-10-25T01:11:56.106Z,921.9610
2022-10-25T01:12:07.310Z,924.5150
2022-10-25T01:12:18.503Z,925.7980
2022-10-25T01:12:29.704Z,920.0550
2022-10-25T01:12:40.903Z,924.5150
2022-10-25T01:12:52.368Z,921.9610
2022-10-25T01:13:03.673Z,920.6900
2022-10-25T01:13:14.824Z,925.7980
2022-10-25T01:13:26.025Z,923.8750
2022-10-25T01:13:37.231Z,924.5150
2022-10-25T01:13:48.263Z,921.9610
2022-10-25T01:13:59.303Z,922.5980
2022-10-25T01:14:10.502Z,919.4210
2022-10-25T01:14:21.547Z,923.2370
2022-10-25T01:14:32.584Z,925.7980
2022-10-25T01:14:43.789Z,923.2370
2022-10-25T01:14:54.823Z,923.2370
2022-10-25T01:15:05.863Z,925.1560
2022-10-25T01:15:17.071Z,920.6900
2022-10-25T01:15:28.293Z,923.8750
2022-10-25T01:15:39.347Z,923.8750
2022-10-25T01:15:50.418Z,927.0830
2022-10-25T01:16:01.464Z,927.7280
2022-10-25T01:16:12.533Z,927.0830
2022-10-25T01:16:23.632Z,927.0830
2022-10-25T01:16:34.823Z,927.0830
2022-10-25T01:16:46.020Z,924.5150
2022-10-25T01:16:57.223Z,924.5150
2022-10-25T01:17:08.464Z,924.5150
2022-10-25T01:17:19.633Z,927.0830
2022-10-25T01:17:30.676Z,925.7980
2022-10-25T01:17:41.723Z,925.7980
2022-10-25T01:17:52.903Z,925.7980
2022-10-25T01:18:04.115Z,925.1560
2022-10-25T01:18:15.203Z,922.5980
2022-10-25T01:18:26.264Z,924.5150
2022-10-25T01:18:37.385Z,925.7980
2022-10-25T01:18:48.586Z,923.2370
2022-10-25T01:18:59.783Z,925.7980
2022-10-25T01:19:10.983Z,918.7890
2022-10-25T01:19:22.224Z,925.7980
2022-10-25T01:19:44.582Z,928.3730
2022-10-25T01:19:55.783Z,927.7280
2022-10-25T01:20:06.834Z,923.2370
2022-10-25T01:20:17.881Z,927.0830
2022-10-25T01:20:29.123Z,928.3730
2022-10-25T01:20:40.264Z,927.0830
2022-10-25T01:20:51.514Z,927.0830
2022-10-25T01:21:02.664Z,925.7980
2022-10-25T01:21:13.866Z,927.7280
2022-10-25T01:21:25.063Z,926.4400
2022-10-25T01:21:36.271Z,928.3730
2022-10-25T01:21:47.463Z,928.3730
2022-10-25T01:21:58.667Z,925.7980
2022-10-25T01:22:09.914Z,927.0830
2022-10-25T01:22:21.062Z,929.6660
2022-10-25T01:22:32.106Z,927.7280
2022-10-25T01:22:43.386Z,927.7280
2022-10-25T01:22:54.732Z,925.7980
2022-10-25T01:23:05.863Z,930.3140
2022-10-25T01:23:17.063Z,924.5150
2022-10-25T01:23:28.262Z,929.6660
2022-10-25T01:23:39.313Z,930.3140
2022-10-25T01:23:50.354Z,929.6660
2022-10-25T01:24:01.545Z,929.6660
2022-10-25T01:24:12.743Z,927.7280
2022-10-25T01:24:23.785Z,930.9620
2022-10-25T01:24:34.821Z,927.0830
2022-10-25T01:24:46.033Z,932.2630
2022-10-25T01:24:57.225Z,932.9140
2022-10-25T01:25:08.428Z,930.9620
2022-10-25T01:25:19.628Z,930.9620
2022-10-25T01:25:30.843Z,933.5660
2022-10-25T01:25:42.024Z,931.6120
2022-10-25T01:25:53.225Z,932.2630
2022-10-25T01:26:04.424Z,932.2630
2022-10-25T01:26:15.622Z,928.3730
2022-10-25T01:26:26.663Z,932.9140
2022-10-25T01:26:37.703Z,925.7980
2022-10-25T01:26:48.904Z,932.2630
2022-10-25T01:27:00.104Z,929.6660
2022-10-25T01:27:11.303Z,925.7980
2022-10-25T01:27:22.343Z,929.6660
2022-10-25T01:27:33.393Z,934.2200
2022-10-25T01:27:44.645Z,930.9620
2022-10-25T01:28:07.994Z,930.9620
2022-10-25T01:28:19.151Z,929.0190
2022-10-25T01:28:30.344Z,929.6660
2022-10-25T01:28:41.413Z,927.0830
2022-10-25T01:28:52.474Z,932.9140
2022-10-25T01:29:03.624Z,933.5660
2022-10-25T01:29:14.835Z,932.2630
2022-10-25T01:29:25.895Z,931.6120
2022-10-25T01:29:36.943Z,927.0830
2022-10-25T01:29:48.110Z,933.5660
2022-10-25T01:29:59.304Z,932.9140
2022-10-25T01:30:10.503Z,932.2630
2022-10-25T01:30:21.714Z,929.6660
2022-10-25T01:30:32.844Z,932.9140
2022-10-25T01:30:43.903Z,930.3140
2022-10-25T01:30:54.993Z,932.9140
2022-10-25T01:31:06.183Z,930.3140
2022-10-25T01:31:17.383Z,932.9140
2022-10-25T01:31:28.588Z,932.2630
2022-10-25T01:31:39.654Z,932.2630
2022-10-25T01:31:50.726Z,934.8740
2022-10-25T01:32:01.865Z,928.3730
2022-10-25T01:32:13.063Z,933.5660
2022-10-25T01:32:24.263Z,932.2630
2022-10-25T01:32:35.463Z,932.9140
2022-10-25T01:32:46.787Z,934.8740
2022-10-25T01:32:58.223Z,933.5660
2022-10-25T01:33:09.383Z,930.9620
2022-10-25T01:33:20.585Z,932.2630
2022-10-25T01:33:31.783Z,932.2630
2022-10-25T01:33:42.983Z,932.2630
2022-10-25T01:33:54.192Z,932.2630
2022-10-25T01:34:05.384Z,937.5000
2022-10-25T01:34:16.586Z,932.2630
2022-10-25T01:34:27.784Z,936.1850
2022-10-25T01:34:38.984Z,931.6120
2022-10-25T01:34:50.043Z,934.8740
2022-10-25T01:35:01.114Z,934.8740
2022-10-25T01:35:12.263Z,937.5000
2022-10-25T01:35:23.357Z,931.6120
2022-10-25T01:35:34.412Z,929.6660
2022-10-25T01:35:45.463Z,936.1850
2022-10-25T01:35:56.543Z,934.8740
2022-10-25T01:36:07.670Z,934.8740
2022-10-25T01:36:18.699Z,934.8740
2022-10-25T01:36:29.723Z,938.8190
2022-10-25T01:36:40.908Z,933.5660
2022-10-25T01:36:51.954Z,937.5000
2022-10-25T01:37:03.047Z,938.8190
2022-10-25T01:37:14.184Z,938.1590
2022-10-25T01:37:25.386Z,940.1410
2022-10-25T01:37:36.584Z,939.4790
2022-10-25T01:37:48.267Z,939.4790
2022-10-25T01:37:59.623Z,934.2200
2022-10-25T01:38:10.826Z,936.8420
2022-10-25T01:38:21.868Z,940.8030
2022-10-25T01:38:32.903Z,938.8190
2022-10-25T01:38:44.111Z,942.1310
2022-10-25T01:38:55.156Z,938.8190
2022-10-25T01:39:06.196Z,940.1410
2022-10-25T01:39:17.383Z,942.7970
2022-10-25T01:39:28.583Z,942.7970
2022-10-25T01:39:39.626Z,939.4790
2022-10-25T01:39:50.673Z,940.1410
2022-10-25T01:40:01.741Z,943.4630
2022-10-25T01:40:12.810Z,942.1310
2022-10-25T01:40:23.944Z,942.1310
2022-10-25T01:40:35.181Z,936.1850
2022-10-25T01:40:46.228Z,940.8030
2022-10-25T01:40:57.293Z,937.5000
2022-10-25T01:41:08.343Z,942.7970
2022-10-25T01:41:19.403Z,941.4670
2022-10-25T01:41:30.511Z,940.1410
2022-10-25T01:41:41.573Z,937.5000
2022-10-25T01:41:52.643Z,945.4670
2022-10-25T01:42:03.783Z,940.8030
2022-10-25T01:42:14.823Z,937.5000
2022-10-25T01:42:25.873Z,940.1410
2022-10-25T01:42:37.073Z,941.4670
2022-10-25T01:42:48.266Z,945.4670
2022-10-25T01:42:59.464Z,944.7980
2022-10-25T01:43:10.673Z,944.1300
2022-10-25T01:43:21.746Z,944.1300
2022-10-25T01:43:32.819Z,946.8090
2022-10-25T01:43:43.943Z,942.7970
2022-10-25T01:43:55.143Z,943.4630
2022-10-25T01:44:06.345Z,942.7970
2022-10-25T01:44:17.544Z,940.8030
2022-10-25T01:44:28.805Z,942.7970
2022-10-25T01:44:39.879Z,943.4630
2022-10-25T01:44:50.930Z,941.4670
2022-10-25T01:45:02.026Z,944.1300
2022-10-25T01:45:13.235Z,946.1370
2022-10-25T01:45:24.425Z,946.1370
2022-10-25T01:45:35.658Z,941.4670
2022-10-25T01:45:46.825Z,940.1410
2022-10-25T01:45:58.027Z,940.1410
2022-10-25T01:46:09.223Z,944.1300
2022-10-25T01:46:20.423Z,945.4670
2022-10-25T01:46:31.629Z,947.4800
2022-10-25T01:46:42.822Z,942.7970
2022-10-25T01:46:54.027Z,945.4670
2022-10-25T01:47:05.223Z,942.7970
2022-10-25T01:47:16.423Z,941.4670
2022-10-25T01:47:27.491Z,940.1410
2022-10-25T01:47:38.541Z,946.8090
2022-10-25T01:47:49.849Z,948.1530
2022-10-25T01:48:01.273Z,940.1410
2022-10-25T01:48:12.423Z,945.4670
2022-10-25T01:48:23.623Z,945.4670
2022-10-25T01:48:34.823Z,942.7970
2022-10-25T01:48:46.023Z,944.1300
2022-10-25T01:48:57.223Z,948.1530
2022-10-25T01:49:08.431Z,942.7970
2022-10-25T01:49:19.623Z,944.1300
2022-10-25T01:49:30.824Z,943.4630
2022-10-25T01:49:42.026Z,942.1310
2022-10-25T01:49:53.223Z,944.1300
2022-10-25T01:50:04.424Z,945.4670
2022-10-25T01:50:15.641Z,948.1530
2022-10-25T01:50:26.693Z,946.1370
2022-10-25T01:50:37.790Z,950.1780
2022-10-25T01:50:48.904Z,948.1530
2022-10-25T01:51:00.110Z,947.4800
2022-10-25T01:51:11.160Z,945.4670
2022-10-25T01:51:22.224Z,945.4670
2022-10-25T01:51:33.263Z,949.5020
2022-10-25T01:51:44.323Z,945.4670
2022-10-25T01:51:55.464Z,944.1300
2022-10-25T01:52:06.513Z,950.1780
2022-10-25T01:52:17.592Z,949.5020
2022-10-25T01:52:28.634Z,948.1530
2022-10-25T01:52:39.673Z,948.1530
2022-10-25T01:52:50.874Z,948.8270
2022-10-25T01:53:02.025Z,944.1300
2022-10-25T01:53:13.064Z,949.5020
2022-10-25T01:53:24.105Z,950.8550
2022-10-25T01:53:35.303Z,950.8550
2022-10-25T01:53:46.349Z,949.5020
2022-10-25T01:53:57.393Z,950.8550
2022-10-25T01:54:08.594Z,950.8550
2022-10-25T01:54:19.782Z,949.5020
2022-10-25T01:54:30.843Z,952.2110
2022-10-25T01:54:41.883Z,945.4670
2022-10-25T01:54:52.943Z,948.1530
2022-10-25T01:55:04.004Z,949.5020
2022-10-25T01:55:15.143Z,948.1530
2022-10-25T01:55:26.344Z,950.8550
2022-10-25T01:55:37.542Z,950.1780
2022-10-25T01:55:48.783Z,948.8270
2022-10-25T01:55:59.942Z,949.5020
2022-10-25T01:56:11.144Z,948.1530
2022-10-25T01:56:22.193Z,951.5320
2022-10-25T01:56:33.233Z,950.1780
2022-10-25T01:56:44.423Z,947.4800
2022-10-25T01:56:55.641Z,949.5020
2022-10-25T01:57:06.823Z,948.8270
2022-10-25T01:57:18.024Z,949.5020
2022-10-25T01:57:29.221Z,951.5320
2022-10-25T01:57:40.423Z,948.8270
2022-10-25T01:57:51.624Z,949.5020
2022-10-25T01:58:02.673Z,950.8550
2022-10-25T01:58:13.743Z,949.5020
2022-10-25T01:58:24.903Z,949.5020
2022-10-25T01:58:35.953Z,949.5020
2022-10-25T01:58:47.032Z,948.8270
2022-10-25T01:58:58.183Z,950.1780
2022-10-25T01:59:09.233Z,949.5020
2022-10-25T01:59:20.273Z,946.8090
2022-10-25T01:59:31.464Z,951.5320
2022-10-25T01:59:42.663Z,952.8910
2022-10-25T01:59:53.863Z,947.4800
2022-10-25T02:00:05.068Z,948.1530
2022-10-25T02:00:16.262Z,948.8270
2022-10-25T02:00:27.510Z,951.5320
2022-10-25T02:00:38.732Z,948.1530
2022-10-25T02:00:49.944Z,948.1530
2022-10-25T02:01:01.255Z,949.5020
2022-10-25T02:01:12.904Z,950.1780
2022-10-25T02:01:24.479Z,946.8090
2022-10-25T02:01:35.846Z,948.1530
2022-10-25T02:01:47.200Z,948.8270
2022-10-25T02:01:58.263Z,948.1530
2022-10-25T02:02:09.334Z,948.1530
2022-10-25T02:02:20.422Z,948.1530
2022-10-25T02:02:31.624Z,949.5020
2022-10-25T02:02:43.030Z,945.4670
2022-10-25T02:02:54.380Z,940.8030
2022-10-25T02:03:05.544Z,946.8090
2022-10-25T02:03:16.744Z,948.1530
2022-10-25T02:03:27.943Z,948.1530
2022-10-25T02:03:39.146Z,942.1310
2022-10-25T02:03:50.343Z,944.7980
2022-10-25T02:04:01.382Z,945.4670
2022-10-25T02:04:12.423Z,947.4800
2022-10-25T02:04:23.623Z,944.7980
2022-10-25T02:04:34.683Z,944.7980
2022-10-25T02:04:45.745Z,946.1370
2022-10-25T02:04:56.905Z,945.4670
2022-10-25T02:05:07.943Z,944.1300
2022-10-25T02:05:18.984Z,948.1530
2022-10-25T02:05:30.183Z,949.5020
2022-10-25T02:05:41.383Z,944.7980
2022-10-25T02:05:52.613Z,948.1530
2022-10-25T02:06:03.783Z,946.1370
2022-10-25T02:06:14.983Z,942.7970
2022-10-25T02:06:26.183Z,946.8090
2022-10-25T02:06:37.390Z,946.8090
2022-10-25T02:06:48.583Z,946.8090
2022-10-25T02:06:59.783Z,942.7970
2022-10-25T02:07:10.831Z,945.4670
2022-10-25T02:07:21.874Z,949.5020
2022-10-25T02:07:33.062Z,939.4790
2022-10-25T02:07:44.268Z,944.1300
2022-10-25T02:07:55.489Z,945.4670
2022-10-25T02:08:06.675Z,946.1370
2022-10-25T02:08:17.865Z,942.1310
2022-10-25T02:08:29.062Z,944.1300
2022-10-25T02:08:40.263Z,949.5020
2022-10-25T02:08:51.464Z,947.4800
2022-10-25T02:09:02.663Z,945.4670
2022-10-25T02:09:13.720Z,944.1300
2022-10-25T02:09:24.782Z,947.4800
2022-10-25T02:09:35.963Z,946.1370
2022-10-25T02:09:47.024Z,948.8270
2022-10-25T02:09:58.123Z,948.1530
2022-10-25T02:10:09.227Z,944.7980
2022-10-25T02:10:20.280Z,947.4800
2022-10-25T02:10:31.313Z,942.7970
2022-10-25T02:10:42.503Z,948.1530
2022-10-25T02:10:53.601Z,943.4630
2022-10-25T02:11:04.662Z,949.5020
2022-10-25T02:11:15.783Z,947.4800
2022-10-25T02:11:26.838Z,945.4670
2022-10-25T02:11:37.905Z,944.7980